sensor_id;sensor_type;location;lat;lon;timestamp;pressure;altitude;pressure_sealevel;temperature;humidity
65010;BME280;51556;50.002;22.014;2023-03-14T00:00:47;98175.14;;;9.21;45.32
65010;BME280;51556;50.002;22.014;2023-03-14T00:03:12;98178.53;;;9.24;45.41
65010;BME280;51556;50.002;22.014;2023-03-14T00:05:38;98168.31;;;9.25;45.05
65010;BME280;51556;50.002;22.014;2023-03-14T00:08:04;98164.77;;;9.26;45.18
65010;BME280;51556;50.002;22.014;2023-03-14T00:10:29;98161.48;;;9.28;45.05
65010;BME280;51556;50.002;22.014;2023-03-14T00:12:54;98160.31;;;9.31;45.09
65010;BME280;51556;50.002;22.014;2023-03-14T00:15:20;98168.14;;;9.33;44.81
65010;BME280;51556;50.002;22.014;2023-03-14T00:17:45;98172.77;;;9.36;44.68
65010;BME280;51556;50.002;22.014;2023-03-14T00:20:11;98174.05;;;9.35;45.00
65010;BME280;51556;50.002;22.014;2023-03-14T00:22:38;98175.46;;;9.34;44.57
65010;BME280;51556;50.002;22.014;2023-03-14T00:25:05;98171.44;;;9.34;44.73
65010;BME280;51556;50.002;22.014;2023-03-14T00:27:31;98175.20;;;9.36;44.53
65010;BME280;51556;50.002;22.014;2023-03-14T00:29:57;98175.98;;;9.39;44.78
65010;BME280;51556;50.002;22.014;2023-03-14T00:32:22;98169.86;;;9.38;43.98
65010;BME280;51556;50.002;22.014;2023-03-14T00:34:47;98155.77;;;9.39;44.63
65010;BME280;51556;50.002;22.014;2023-03-14T00:37:13;98143.27;;;9.40;45.14
65010;BME280;51556;50.002;22.014;2023-03-14T00:39:39;98145.50;;;9.42;44.57
65010;BME280;51556;50.002;22.014;2023-03-14T00:42:04;98148.88;;;9.41;44.20
65010;BME280;51556;50.002;22.014;2023-03-14T00:44:30;98144.68;;;9.40;44.11
65010;BME280;51556;50.002;22.014;2023-03-14T00:46:57;98133.83;;;9.44;44.31
65010;BME280;51556;50.002;22.014;2023-03-14T00:49:23;98141.61;;;9.43;43.62
65010;BME280;51556;50.002;22.014;2023-03-14T00:51:49;98142.20;;;9.45;43.62
65010;BME280;51556;50.002;22.014;2023-03-14T00:54:14;98132.89;;;9.46;44.00
65010;BME280;51556;50.002;22.014;2023-03-14T00:56:40;98128.21;;;9.48;43.58
65010;BME280;51556;50.002;22.014;2023-03-14T00:59:05;98127.37;;;9.52;43.50
65010;BME280;51556;50.002;22.014;2023-03-14T01:01:31;98118.20;;;9.53;43.22
65010;BME280;51556;50.002;22.014;2023-03-14T01:03:56;98120.75;;;9.54;42.44
65010;BME280;51556;50.002;22.014;2023-03-14T01:06:24;98111.29;;;9.58;42.44
65010;BME280;51556;50.002;22.014;2023-03-14T01:08:51;98099.95;;;9.65;42.76
65010;BME280;51556;50.002;22.014;2023-03-14T01:11:26;98080.44;;;9.68;42.88
65010;BME280;51556;50.002;22.014;2023-03-14T01:13:52;98072.16;;;9.73;43.02
65010;BME280;51556;50.002;22.014;2023-03-14T01:16:20;98070.05;;;9.77;42.62
65010;BME280;51556;50.002;22.014;2023-03-14T01:18:47;98063.17;;;9.82;43.13
65010;BME280;51556;50.002;22.014;2023-03-14T01:21:19;98057.83;;;9.88;43.04
65010;BME280;51556;50.002;22.014;2023-03-14T01:23:45;98055.85;;;9.93;43.26
65010;BME280;51556;50.002;22.014;2023-03-14T01:26:13;98055.19;;;9.96;42.96
65010;BME280;51556;50.002;22.014;2023-03-14T01:28:39;98043.09;;;9.99;43.36
65010;BME280;51556;50.002;22.014;2023-03-14T01:31:08;98032.89;;;10.07;43.31
65010;BME280;51556;50.002;22.014;2023-03-14T01:33:34;98022.76;;;10.10;42.93
65010;BME280;51556;50.002;22.014;2023-03-14T01:36:00;98010.48;;;10.09;43.13
65010;BME280;51556;50.002;22.014;2023-03-14T01:38:28;98009.31;;;10.11;42.70
65010;BME280;51556;50.002;22.014;2023-03-14T01:40:54;98002.95;;;10.12;42.42
65010;BME280;51556;50.002;22.014;2023-03-14T01:43:20;97996.10;;;10.08;42.08
65010;BME280;51556;50.002;22.014;2023-03-14T01:49:04;97981.79;;;10.02;41.77
65010;BME280;51556;50.002;22.014;2023-03-14T01:52:04;97969.52;;;10.01;42.23
65010;BME280;51556;50.002;22.014;2023-03-14T01:54:40;97969.02;;;9.97;41.90
65010;BME280;51556;50.002;22.014;2023-03-14T01:59:39;97970.73;;;9.98;42.54
65010;BME280;51556;50.002;22.014;2023-03-14T02:02:09;97964.49;;;10.00;42.44
65010;BME280;51556;50.002;22.014;2023-03-14T02:04:37;97956.42;;;10.03;42.45
65010;BME280;51556;50.002;22.014;2023-03-14T02:07:17;97954.80;;;10.03;42.08
65010;BME280;51556;50.002;22.014;2023-03-14T02:09:44;97959.59;;;10.02;42.39
65010;BME280;51556;50.002;22.014;2023-03-14T02:12:11;97966.59;;;10.00;42.15
65010;BME280;51556;50.002;22.014;2023-03-14T02:14:39;97964.70;;;10.02;42.79
65010;BME280;51556;50.002;22.014;2023-03-14T02:17:06;97960.66;;;10.06;42.45
65010;BME280;51556;50.002;22.014;2023-03-14T02:22:37;97964.92;;;10.01;42.23
65010;BME280;51556;50.002;22.014;2023-03-14T02:27:38;97958.51;;;10.03;42.12
65010;BME280;51556;50.002;22.014;2023-03-14T02:30:19;97958.65;;;10.04;42.11
65010;BME280;51556;50.002;22.014;2023-03-14T02:32:49;97949.74;;;9.99;41.75
65010;BME280;51556;50.002;22.014;2023-03-14T02:35:22;97945.65;;;9.96;41.94
65010;BME280;51556;50.002;22.014;2023-03-14T02:38:07;97937.08;;;9.96;41.74
65010;BME280;51556;50.002;22.014;2023-03-14T02:40:36;97937.59;;;9.96;41.46
65010;BME280;51556;50.002;22.014;2023-03-14T02:43:01;97937.07;;;9.95;41.25
65010;BME280;51556;50.002;22.014;2023-03-14T02:45:34;97934.66;;;9.94;41.16
65010;BME280;51556;50.002;22.014;2023-03-14T02:48:04;97932.88;;;9.91;41.26
65010;BME280;51556;50.002;22.014;2023-03-14T02:50:31;97923.39;;;9.91;41.58
65010;BME280;51556;50.002;22.014;2023-03-14T02:52:59;97917.66;;;9.93;41.81
65010;BME280;51556;50.002;22.014;2023-03-14T02:55:25;97919.73;;;9.94;41.44
65010;BME280;51556;50.002;22.014;2023-03-14T02:57:52;97908.61;;;9.95;40.86
65010;BME280;51556;50.002;22.014;2023-03-14T03:00:18;97909.38;;;9.94;41.06
65010;BME280;51556;50.002;22.014;2023-03-14T03:02:45;97897.22;;;9.91;40.94
65010;BME280;51556;50.002;22.014;2023-03-14T03:05:11;97894.30;;;9.89;41.27
65010;BME280;51556;50.002;22.014;2023-03-14T03:07:36;97896.27;;;9.92;41.03
65010;BME280;51556;50.002;22.014;2023-03-14T03:10:02;97885.48;;;9.90;40.68
65010;BME280;51556;50.002;22.014;2023-03-14T03:12:28;97881.50;;;9.89;40.73
65010;BME280;51556;50.002;22.014;2023-03-14T03:14:53;97879.23;;;9.88;41.13
65010;BME280;51556;50.002;22.014;2023-03-14T03:17:19;97870.30;;;9.88;40.93
65010;BME280;51556;50.002;22.014;2023-03-14T03:19:44;97869.00;;;9.89;40.42
65010;BME280;51556;50.002;22.014;2023-03-14T03:22:10;97872.45;;;9.87;40.64
65010;BME280;51556;50.002;22.014;2023-03-14T03:24:35;97869.92;;;9.88;40.67
65010;BME280;51556;50.002;22.014;2023-03-14T03:27:01;97865.35;;;9.88;39.79
65010;BME280;51556;50.002;22.014;2023-03-14T03:29:26;97855.63;;;9.85;40.23
65010;BME280;51556;50.002;22.014;2023-03-14T03:31:52;97858.59;;;9.86;40.41
65010;BME280;51556;50.002;22.014;2023-03-14T03:34:18;97848.66;;;9.84;40.36
65010;BME280;51556;50.002;22.014;2023-03-14T03:36:44;97860.80;;;9.80;40.28
65010;BME280;51556;50.002;22.014;2023-03-14T03:39:09;97849.20;;;9.76;40.11
65010;BME280;51556;50.002;22.014;2023-03-14T03:41:35;97851.30;;;9.77;40.32
65010;BME280;51556;50.002;22.014;2023-03-14T03:44:00;97849.42;;;9.76;40.22
65010;BME280;51556;50.002;22.014;2023-03-14T03:46:25;97846.45;;;9.75;40.11
65010;BME280;51556;50.002;22.014;2023-03-14T03:48:58;97844.11;;;9.72;39.94
65010;BME280;51556;50.002;22.014;2023-03-14T03:51:24;97834.06;;;9.77;40.41
65010;BME280;51556;50.002;22.014;2023-03-14T03:53:50;97830.59;;;9.80;40.66
65010;BME280;51556;50.002;22.014;2023-03-14T03:56:16;97829.02;;;9.83;40.56
65010;BME280;51556;50.002;22.014;2023-03-14T03:58:41;97817.20;;;9.84;40.11
65010;BME280;51556;50.002;22.014;2023-03-14T04:01:08;97812.91;;;9.82;40.24
65010;BME280;51556;50.002;22.014;2023-03-14T04:03:34;97799.35;;;9.83;40.17
65010;BME280;51556;50.002;22.014;2023-03-14T04:06:05;97789.67;;;9.83;40.21
65010;BME280;51556;50.002;22.014;2023-03-14T04:08:31;97788.73;;;9.81;39.73
65010;BME280;51556;50.002;22.014;2023-03-14T04:10:58;97785.05;;;9.80;39.78
65010;BME280;51556;50.002;22.014;2023-03-14T04:13:24;97779.20;;;9.78;39.90
65010;BME280;51556;50.002;22.014;2023-03-14T04:15:51;97774.90;;;9.79;39.85
65010;BME280;51556;50.002;22.014;2023-03-14T04:18:17;97776.42;;;9.81;39.55
65010;BME280;51556;50.002;22.014;2023-03-14T04:20:43;97768.66;;;9.82;39.64
65010;BME280;51556;50.002;22.014;2023-03-14T04:23:08;97761.98;;;9.85;39.94
65010;BME280;51556;50.002;22.014;2023-03-14T04:25:34;97755.26;;;9.86;40.00
65010;BME280;51556;50.002;22.014;2023-03-14T04:27:59;97753.40;;;9.88;39.43
65010;BME280;51556;50.002;22.014;2023-03-14T04:30:25;97752.77;;;9.90;39.72
65010;BME280;51556;50.002;22.014;2023-03-14T04:32:50;97751.36;;;9.90;39.80
65010;BME280;51556;50.002;22.014;2023-03-14T04:35:15;97746.70;;;9.92;39.98
65010;BME280;51556;50.002;22.014;2023-03-14T04:37:41;97740.89;;;9.96;39.97
65010;BME280;51556;50.002;22.014;2023-03-14T04:40:10;97742.58;;;9.98;40.05
65010;BME280;51556;50.002;22.014;2023-03-14T04:42:36;97742.55;;;10.01;40.45
65010;BME280;51556;50.002;22.014;2023-03-14T04:45:01;97744.87;;;10.04;39.80
65010;BME280;51556;50.002;22.014;2023-03-14T04:47:27;97734.59;;;10.02;39.61
65010;BME280;51556;50.002;22.014;2023-03-14T04:49:53;97736.55;;;9.99;39.83
65010;BME280;51556;50.002;22.014;2023-03-14T04:52:19;97738.43;;;9.92;40.13
65010;BME280;51556;50.002;22.014;2023-03-14T04:54:44;97741.08;;;9.88;40.47
65010;BME280;51556;50.002;22.014;2023-03-14T04:57:10;97745.06;;;9.90;40.19
65010;BME280;51556;50.002;22.014;2023-03-14T04:59:35;97744.44;;;9.84;40.11
65010;BME280;51556;50.002;22.014;2023-03-14T05:02:01;97747.15;;;9.83;40.62
65010;BME280;51556;50.002;22.014;2023-03-14T05:04:26;97749.99;;;9.86;40.54
65010;BME280;51556;50.002;22.014;2023-03-14T05:06:52;97753.17;;;9.85;40.73
65010;BME280;51556;50.002;22.014;2023-03-14T05:09:17;97753.38;;;9.85;40.93
65010;BME280;51556;50.002;22.014;2023-03-14T05:11:43;97750.23;;;9.85;40.66
65010;BME280;51556;50.002;22.014;2023-03-14T05:14:08;97753.08;;;9.88;40.96
65010;BME280;51556;50.002;22.014;2023-03-14T05:16:34;97744.75;;;9.89;41.20
65010;BME280;51556;50.002;22.014;2023-03-14T05:18:59;97730.36;;;9.88;41.07
65010;BME280;51556;50.002;22.014;2023-03-14T05:21:26;97729.21;;;9.90;41.48
65010;BME280;51556;50.002;22.014;2023-03-14T05:23:52;97719.05;;;9.86;40.88
65010;BME280;51556;50.002;22.014;2023-03-14T05:26:18;97721.70;;;9.82;40.93
65010;BME280;51556;50.002;22.014;2023-03-14T05:28:43;97721.73;;;9.74;41.27
65010;BME280;51556;50.002;22.014;2023-03-14T05:31:09;97724.09;;;9.72;41.59
65010;BME280;51556;50.002;22.014;2023-03-14T05:33:35;97724.48;;;9.72;41.47
65010;BME280;51556;50.002;22.014;2023-03-14T05:36:00;97721.48;;;9.72;41.86
65010;BME280;51556;50.002;22.014;2023-03-14T05:38:26;97716.31;;;9.70;41.42
65010;BME280;51556;50.002;22.014;2023-03-14T05:40:51;97711.40;;;9.70;41.81
65010;BME280;51556;50.002;22.014;2023-03-14T05:43:17;97709.09;;;9.70;41.41
65010;BME280;51556;50.002;22.014;2023-03-14T05:45:42;97709.27;;;9.67;41.44
65010;BME280;51556;50.002;22.014;2023-03-14T05:48:08;97700.24;;;9.68;41.43
65010;BME280;51556;50.002;22.014;2023-03-14T05:50:34;97691.34;;;9.70;41.87
65010;BME280;51556;50.002;22.014;2023-03-14T05:52:59;97691.05;;;9.72;42.02
65010;BME280;51556;50.002;22.014;2023-03-14T05:55:25;97689.70;;;9.76;41.49
65010;BME280;51556;50.002;22.014;2023-03-14T05:57:51;97694.85;;;9.78;41.42
65010;BME280;51556;50.002;22.014;2023-03-14T06:00:17;97696.83;;;9.81;41.60
65010;BME280;51556;50.002;22.014;2023-03-14T06:02:43;97694.64;;;9.86;41.41
65010;BME280;51556;50.002;22.014;2023-03-14T06:05:08;97694.84;;;9.89;41.56
65010;BME280;51556;50.002;22.014;2023-03-14T06:07:34;97702.48;;;9.91;41.22
65010;BME280;51556;50.002;22.014;2023-03-14T06:09:59;97695.73;;;9.92;41.38
65010;BME280;51556;50.002;22.014;2023-03-14T06:12:25;97695.38;;;9.96;40.97
65010;BME280;51556;50.002;22.014;2023-03-14T06:14:50;97685.69;;;10.00;41.45
65010;BME280;51556;50.002;22.014;2023-03-14T06:17:16;97686.73;;;10.00;41.21
65010;BME280;51556;50.002;22.014;2023-03-14T06:19:42;97679.19;;;10.03;41.50
65010;BME280;51556;50.002;22.014;2023-03-14T06:22:07;97678.52;;;10.10;41.58
65010;BME280;51556;50.002;22.014;2023-03-14T06:24:33;97678.27;;;10.14;41.39
65010;BME280;51556;50.002;22.014;2023-03-14T06:26:58;97674.19;;;10.19;41.48
65010;BME280;51556;50.002;22.014;2023-03-14T06:29:23;97675.73;;;10.27;41.60
65010;BME280;51556;50.002;22.014;2023-03-14T06:31:49;97677.67;;;10.34;41.24
65010;BME280;51556;50.002;22.014;2023-03-14T06:34:14;97666.36;;;10.41;41.69
65010;BME280;51556;50.002;22.014;2023-03-14T06:36:40;97656.02;;;10.47;41.64
65010;BME280;51556;50.002;22.014;2023-03-14T06:39:05;97646.15;;;10.54;41.16
65010;BME280;51556;50.002;22.014;2023-03-14T06:41:31;97636.60;;;10.59;41.29
65010;BME280;51556;50.002;22.014;2023-03-14T06:43:58;97636.36;;;10.63;41.11
65010;BME280;51556;50.002;22.014;2023-03-14T06:46:23;97632.13;;;10.63;40.65
65010;BME280;51556;50.002;22.014;2023-03-14T06:48:49;97641.67;;;10.66;40.33
65010;BME280;51556;50.002;22.014;2023-03-14T06:51:14;97634.56;;;10.67;40.32
65010;BME280;51556;50.002;22.014;2023-03-14T06:53:40;97625.55;;;10.71;40.70
65010;BME280;51556;50.002;22.014;2023-03-14T06:56:05;97634.02;;;10.77;40.88
65010;BME280;51556;50.002;22.014;2023-03-14T06:58:31;97637.05;;;10.83;40.86
65010;BME280;51556;50.002;22.014;2023-03-14T07:00:57;97639.93;;;10.88;40.96
65010;BME280;51556;50.002;22.014;2023-03-14T07:03:23;97635.90;;;10.94;40.29
65010;BME280;51556;50.002;22.014;2023-03-14T07:05:49;97633.00;;;11.02;40.59
65010;BME280;51556;50.002;22.014;2023-03-14T07:08:14;97622.05;;;11.10;40.68
65010;BME280;51556;50.002;22.014;2023-03-14T07:10:39;97626.90;;;11.17;40.55
65010;BME280;51556;50.002;22.014;2023-03-14T07:13:05;97633.13;;;11.22;40.26
65010;BME280;51556;50.002;22.014;2023-03-14T07:15:30;97629.48;;;11.31;40.53
65010;BME280;51556;50.002;22.014;2023-03-14T07:17:56;97628.79;;;11.40;40.28
65010;BME280;51556;50.002;22.014;2023-03-14T07:20:21;97623.05;;;11.48;40.30
65010;BME280;51556;50.002;22.014;2023-03-14T07:22:48;97624.38;;;11.58;40.12
65010;BME280;51556;50.002;22.014;2023-03-14T07:25:14;97623.84;;;11.64;40.40
65010;BME280;51556;50.002;22.014;2023-03-14T07:27:43;97633.60;;;11.73;40.44
65010;BME280;51556;50.002;22.014;2023-03-14T07:30:09;97624.15;;;11.84;40.46
65010;BME280;51556;50.002;22.014;2023-03-14T07:32:35;97619.69;;;11.94;40.48
65010;BME280;51556;50.002;22.014;2023-03-14T07:35:00;97623.88;;;12.01;40.32
65010;BME280;51556;50.002;22.014;2023-03-14T07:37:26;97623.65;;;12.11;40.04
65010;BME280;51556;50.002;22.014;2023-03-14T07:39:51;97614.83;;;12.20;40.32
65010;BME280;51556;50.002;22.014;2023-03-14T07:42:17;97613.45;;;12.28;40.50
65010;BME280;51556;50.002;22.014;2023-03-14T07:44:42;97615.17;;;12.37;39.63
65010;BME280;51556;50.002;22.014;2023-03-14T07:47:08;97615.88;;;12.40;39.72
65010;BME280;51556;50.002;22.014;2023-03-14T07:49:33;97610.45;;;12.42;39.97
65010;BME280;51556;50.002;22.014;2023-03-14T07:51:58;97609.30;;;12.50;39.96
65010;BME280;51556;50.002;22.014;2023-03-14T07:54:24;97613.85;;;12.53;39.48
65010;BME280;51556;50.002;22.014;2023-03-14T07:56:50;97616.16;;;12.56;39.77
65010;BME280;51556;50.002;22.014;2023-03-14T07:59:17;97610.70;;;12.58;39.50
65010;BME280;51556;50.002;22.014;2023-03-14T08:01:43;97601.16;;;12.61;39.64
65010;BME280;51556;50.002;22.014;2023-03-14T08:04:08;97591.31;;;12.69;39.80
65010;BME280;51556;50.002;22.014;2023-03-14T08:06:35;97588.13;;;12.69;39.58
65010;BME280;51556;50.002;22.014;2023-03-14T08:09:01;97577.50;;;12.72;39.80
65010;BME280;51556;50.002;22.014;2023-03-14T08:11:26;97576.69;;;12.77;40.11
65010;BME280;51556;50.002;22.014;2023-03-14T08:13:52;97576.49;;;12.83;39.43
65010;BME280;51556;50.002;22.014;2023-03-14T08:16:18;97575.59;;;12.89;39.80
65010;BME280;51556;50.002;22.014;2023-03-14T08:18:44;97580.34;;;12.95;39.64
65010;BME280;51556;50.002;22.014;2023-03-14T08:21:10;97576.26;;;13.03;40.21
65010;BME280;51556;50.002;22.014;2023-03-14T08:23:35;97558.00;;;13.13;39.67
65010;BME280;51556;50.002;22.014;2023-03-14T08:26:01;97557.09;;;13.19;40.04
65010;BME280;51556;50.002;22.014;2023-03-14T08:28:27;97547.54;;;13.24;39.75
65010;BME280;51556;50.002;22.014;2023-03-14T08:30:56;97543.64;;;13.30;40.25
65010;BME280;51556;50.002;22.014;2023-03-14T08:33:23;97558.19;;;13.37;40.17
65010;BME280;51556;50.002;22.014;2023-03-14T08:35:54;97560.70;;;13.48;40.12
65010;BME280;51556;50.002;22.014;2023-03-14T08:38:19;97559.34;;;13.57;39.68
65010;BME280;51556;50.002;22.014;2023-03-14T08:40:45;97561.07;;;13.66;40.11
65010;BME280;51556;50.002;22.014;2023-03-14T08:43:10;97562.23;;;13.75;39.99
65010;BME280;51556;50.002;22.014;2023-03-14T08:45:36;97558.13;;;13.78;39.53
65010;BME280;51556;50.002;22.014;2023-03-14T08:48:01;97574.66;;;13.79;39.69
65010;BME280;51556;50.002;22.014;2023-03-14T08:50:27;97570.67;;;13.83;40.03
65010;BME280;51556;50.002;22.014;2023-03-14T08:52:52;97567.36;;;13.90;40.12
65010;BME280;51556;50.002;22.014;2023-03-14T08:55:18;97572.52;;;13.95;40.01
65010;BME280;51556;50.002;22.014;2023-03-14T08:57:44;97561.70;;;13.95;39.59
65010;BME280;51556;50.002;22.014;2023-03-14T09:00:10;97557.50;;;13.95;39.74
65010;BME280;51556;50.002;22.014;2023-03-14T09:02:37;97551.70;;;14.00;39.85
65010;BME280;51556;50.002;22.014;2023-03-14T09:05:03;97562.45;;;14.00;39.58
65010;BME280;51556;50.002;22.014;2023-03-14T09:07:29;97565.95;;;13.96;39.16
65010;BME280;51556;50.002;22.014;2023-03-14T09:09:55;97568.05;;;13.91;39.15
65010;BME280;51556;50.002;22.014;2023-03-14T09:12:20;97581.66;;;13.91;39.42
65010;BME280;51556;50.002;22.014;2023-03-14T09:14:46;97596.12;;;13.92;39.13
65010;BME280;51556;50.002;22.014;2023-03-14T09:17:11;97595.08;;;13.89;39.09
65010;BME280;51556;50.002;22.014;2023-03-14T09:19:37;97593.42;;;13.90;39.13
65010;BME280;51556;50.002;22.014;2023-03-14T09:22:02;97596.17;;;13.86;39.00
65010;BME280;51556;50.002;22.014;2023-03-14T09:24:28;97602.61;;;13.82;39.26
65010;BME280;51556;50.002;22.014;2023-03-14T09:26:55;97610.92;;;13.82;39.16
65010;BME280;51556;50.002;22.014;2023-03-14T09:29:21;97604.91;;;13.79;39.04
65010;BME280;51556;50.002;22.014;2023-03-14T09:31:47;97603.20;;;13.76;39.35
65010;BME280;51556;50.002;22.014;2023-03-14T09:34:12;97599.23;;;13.87;39.72
65010;BME280;51556;50.002;22.014;2023-03-14T09:36:38;97596.71;;;14.04;40.13
65010;BME280;51556;50.002;22.014;2023-03-14T09:39:05;97593.79;;;14.15;38.96
65010;BME280;51556;50.002;22.014;2023-03-14T09:41:34;97584.66;;;14.15;38.40
65010;BME280;51556;50.002;22.014;2023-03-14T09:46:36;97607.04;;;14.24;38.85
65010;BME280;51556;50.002;22.014;2023-03-14T09:49:09;97616.44;;;14.26;38.47
65010;BME280;51556;50.002;22.014;2023-03-14T09:51:36;97600.96;;;14.22;38.22
65010;BME280;51556;50.002;22.014;2023-03-14T09:54:03;97599.36;;;14.25;38.46
65010;BME280;51556;50.002;22.014;2023-03-14T09:56:32;97612.33;;;14.24;38.21
65010;BME280;51556;50.002;22.014;2023-03-14T09:59:00;97618.63;;;14.23;38.48
65010;BME280;51556;50.002;22.014;2023-03-14T10:01:30;97614.81;;;14.16;38.21
65010;BME280;51556;50.002;22.014;2023-03-14T10:03:59;97613.97;;;14.13;38.66
65010;BME280;51556;50.002;22.014;2023-03-14T10:06:28;97614.05;;;14.12;39.05
65010;BME280;51556;50.002;22.014;2023-03-14T10:08:55;97613.85;;;14.10;38.76
65010;BME280;51556;50.002;22.014;2023-03-14T10:11:22;97604.07;;;14.15;39.53
65010;BME280;51556;50.002;22.014;2023-03-14T10:14:03;97594.60;;;14.24;38.92
65010;BME280;51556;50.002;22.014;2023-03-14T10:16:36;97593.05;;;14.34;38.53
65010;BME280;51556;50.002;22.014;2023-03-14T10:19:06;97598.36;;;14.37;38.81
65010;BME280;51556;50.002;22.014;2023-03-14T10:21:40;97587.55;;;14.42;38.55
65010;BME280;51556;50.002;22.014;2023-03-14T10:24:10;97587.33;;;14.48;38.73
65010;BME280;51556;50.002;22.014;2023-03-14T10:26:36;97578.94;;;14.59;38.47
65010;BME280;51556;50.002;22.014;2023-03-14T10:29:08;97574.31;;;14.69;38.92
65010;BME280;51556;50.002;22.014;2023-03-14T10:31:53;97570.27;;;14.69;38.82
65010;BME280;51556;50.002;22.014;2023-03-14T10:34:26;97578.88;;;14.62;38.65
65010;BME280;51556;50.002;22.014;2023-03-14T10:36:53;97583.48;;;14.52;38.57
65010;BME280;51556;50.002;22.014;2023-03-14T10:39:24;97580.65;;;14.45;38.90
65010;BME280;51556;50.002;22.014;2023-03-14T10:41:55;97593.13;;;14.41;38.81
65010;BME280;51556;50.002;22.014;2023-03-14T10:44:28;97595.70;;;14.34;39.05
65010;BME280;51556;50.002;22.014;2023-03-14T10:47:00;97594.05;;;14.32;39.66
65010;BME280;51556;50.002;22.014;2023-03-14T10:49:34;97590.55;;;14.24;39.66
65010;BME280;51556;50.002;22.014;2023-03-14T10:52:27;97594.17;;;14.18;39.59
65010;BME280;51556;50.002;22.014;2023-03-14T10:55:01;97604.36;;;14.06;39.97
65010;BME280;51556;50.002;22.014;2023-03-14T10:57:28;97592.80;;;14.01;39.99
65010;BME280;51556;50.002;22.014;2023-03-14T10:59:55;97587.36;;;13.98;40.02
65010;BME280;51556;50.002;22.014;2023-03-14T11:02:42;97594.90;;;14.02;40.29
65010;BME280;51556;50.002;22.014;2023-03-14T11:07:43;97583.77;;;14.15;40.42
65010;BME280;51556;50.002;22.014;2023-03-14T11:10:26;97588.74;;;14.30;40.29
65010;BME280;51556;50.002;22.014;2023-03-14T11:15:36;97589.29;;;14.55;39.59
65010;BME280;51556;50.002;22.014;2023-03-14T11:20:55;97595.58;;;14.72;39.46
65010;BME280;51556;50.002;22.014;2023-03-14T11:24:05;97595.52;;;14.85;39.36
65010;BME280;51556;50.002;22.014;2023-03-14T11:26:57;97602.26;;;14.95;38.69
65010;BME280;51556;50.002;22.014;2023-03-14T11:32:00;97592.39;;;14.99;39.21
65010;BME280;51556;50.002;22.014;2023-03-14T11:34:40;97588.58;;;15.03;38.92
65010;BME280;51556;50.002;22.014;2023-03-14T11:39:59;97590.49;;;15.08;39.22
65010;BME280;51556;50.002;22.014;2023-03-14T11:42:31;97583.92;;;15.11;39.40
65010;BME280;51556;50.002;22.014;2023-03-14T11:45:00;97574.04;;;15.27;39.65
65010;BME280;51556;50.002;22.014;2023-03-14T11:47:30;97568.64;;;15.45;39.65
65010;BME280;51556;50.002;22.014;2023-03-14T11:50:03;97562.43;;;15.62;39.37
65010;BME280;51556;50.002;22.014;2023-03-14T11:52:39;97568.46;;;15.79;39.36
65010;BME280;51556;50.002;22.014;2023-03-14T11:55:19;97563.64;;;16.07;38.71
65010;BME280;51556;50.002;22.014;2023-03-14T11:57:47;97573.92;;;16.21;37.25
65010;BME280;51556;50.002;22.014;2023-03-14T12:02:53;97562.52;;;16.40;37.46
65010;BME280;51556;50.002;22.014;2023-03-14T12:05:46;97566.35;;;16.41;37.26
65010;BME280;51556;50.002;22.014;2023-03-14T12:11:31;97557.04;;;16.60;37.06
65010;BME280;51556;50.002;22.014;2023-03-14T12:13:57;97556.64;;;16.83;37.10
65010;BME280;51556;50.002;22.014;2023-03-14T12:16:34;97550.73;;;16.97;36.39
65010;BME280;51556;50.002;22.014;2023-03-14T12:21:58;97545.63;;;17.43;36.31
65010;BME280;51556;50.002;22.014;2023-03-14T12:24:30;97552.11;;;17.80;35.70
65010;BME280;51556;50.002;22.014;2023-03-14T12:26:59;97545.88;;;17.95;35.16
65010;BME280;51556;50.002;22.014;2023-03-14T12:29:25;97548.35;;;18.21;34.96
65010;BME280;51556;50.002;22.014;2023-03-14T12:40:06;97533.23;;;18.84;34.12
65010;BME280;51556;50.002;22.014;2023-03-14T12:42:40;97528.23;;;19.20;33.48
65010;BME280;51556;50.002;22.014;2023-03-14T12:45:24;97521.91;;;19.25;33.28
65010;BME280;51556;50.002;22.014;2023-03-14T12:47:53;97525.59;;;19.22;33.02
65010;BME280;51556;50.002;22.014;2023-03-14T12:50:24;97520.19;;;19.14;33.15
65010;BME280;51556;50.002;22.014;2023-03-14T12:55:42;97523.61;;;19.77;32.68
65010;BME280;51556;50.002;22.014;2023-03-14T13:00:54;97519.52;;;20.51;32.35
65010;BME280;51556;50.002;22.014;2023-03-14T13:03:23;97521.95;;;20.84;31.14
65010;BME280;51556;50.002;22.014;2023-03-14T13:06:01;97518.64;;;21.15;31.29
65010;BME280;51556;50.002;22.014;2023-03-14T13:08:45;97526.88;;;21.68;30.47
65010;BME280;51556;50.002;22.014;2023-03-14T13:11:21;97522.08;;;22.03;29.72
65010;BME280;51556;50.002;22.014;2023-03-14T13:13:56;97526.05;;;21.92;29.37
65010;BME280;51556;50.002;22.014;2023-03-14T13:16:22;97525.02;;;21.56;29.51
65010;BME280;51556;50.002;22.014;2023-03-14T13:18:58;97526.27;;;21.44;30.50
65010;BME280;51556;50.002;22.014;2023-03-14T13:21:47;97526.14;;;21.41;30.36
65010;BME280;51556;50.002;22.014;2023-03-14T13:24:23;97522.37;;;21.05;30.11
65010;BME280;51556;50.002;22.014;2023-03-14T13:26:49;97529.16;;;20.81;30.66
65010;BME280;51556;50.002;22.014;2023-03-14T13:29:25;97532.64;;;20.82;30.51
65010;BME280;51556;50.002;22.014;2023-03-14T13:31:54;97526.18;;;21.10;30.34
65010;BME280;51556;50.002;22.014;2023-03-14T13:34:25;97534.61;;;20.95;29.86
65010;BME280;51556;50.002;22.014;2023-03-14T13:36:54;97538.14;;;20.90;29.85
65010;BME280;51556;50.002;22.014;2023-03-14T13:39:22;97528.66;;;20.92;30.12
65010;BME280;51556;50.002;22.014;2023-03-14T13:41:50;97527.46;;;21.15;30.00
65010;BME280;51556;50.002;22.014;2023-03-14T13:44:21;97538.38;;;21.20;29.79
65010;BME280;51556;50.002;22.014;2023-03-14T13:46:48;97542.02;;;21.36;29.59
65010;BME280;51556;50.002;22.014;2023-03-14T13:49:23;97538.77;;;20.98;29.84